Time;durP1;ratioP1;P1;durP2;ratioP2;P2;SDS_P1;SDS_P2;PMS_P1;PMS_P2;Temp;Humidity;BMP_temperature;BMP_pressure;BME280_temperature;BME280_humidity;BME280_pressure;Samples;Min_cycle;Max_cycle;Signal;HPM_P1;HPM_P2
2022/08/13 00:02:02;;;;;;;3.47;2.47;;;19.00;77.50;;;;;;5050941;28;20224;-91
2022/08/13 00:04:30;;;;;;;5.68;2.70;;;19.00;77.50;;;;;;5042883;28;20230;-91
2022/08/13 00:07:06;;;;;;;4.97;2.45;;;19.00;77.60;;;;;;5053356;28;20224;-91
2022/08/13 00:09:34;;;;;;;4.40;2.63;;;19.00;77.90;;;;;;5049964;28;20219;-91
2022/08/13 00:14:48;;;;;;;6.38;2.60;;;18.90;78.10;;;;;;5044346;28;20220;-92
2022/08/13 00:17:17;;;;;;;5.30;2.53;;;18.90;78.20;;;;;;5028204;28;20733;-91
2022/08/13 00:19:47;;;;;;;2.60;2.40;;;18.90;78.80;;;;;;5046845;28;20224;-92
2022/08/13 00:22:14;;;;;;;3.38;2.33;;;18.90;79.00;;;;;;5049404;28;20909;-92
2022/08/13 00:24:41;;;;;;;4.18;2.50;;;18.90;78.60;;;;;;5046535;28;20690;-90
2022/08/13 00:27:09;;;;;;;6.85;2.47;;;18.80;78.80;;;;;;5045133;28;20322;-92
2022/08/13 00:29:37;;;;;;;4.13;2.22;;;18.70;79.00;;;;;;5060286;28;20674;-91
2022/08/13 00:32:04;;;;;;;4.13;2.28;;;18.80;79.00;;;;;;5062402;28;20235;-91
2022/08/13 00:34:31;;;;;;;4.63;2.55;;;18.70;79.10;;;;;;5048883;28;20591;-91
2022/08/13 00:36:58;;;;;;;4.28;2.50;;;18.70;79.20;;;;;;5040428;28;20228;-91
2022/08/13 00:39:24;;;;;;;3.75;2.30;;;18.60;79.30;;;;;;5040032;28;20238;-92
2022/08/13 00:41:51;;;;;;;2.90;2.45;;;18.60;79.40;;;;;;5043383;28;20290;-91
2022/08/13 00:44:19;;;;;;;5.20;2.30;;;18.60;79.30;;;;;;5043358;28;20213;-90
2022/08/13 00:46:46;;;;;;;4.63;2.30;;;18.60;80.00;;;;;;5043449;28;20228;-91
2022/08/13 00:49:13;;;;;;;4.18;2.38;;;18.50;79.80;;;;;;5045342;28;20248;-91
2022/08/13 00:51:42;;;;;;;6.15;2.25;;;18.50;80.00;;;;;;5045967;28;20216;-91
2022/08/13 00:54:10;;;;;;;5.47;2.40;;;18.50;80.20;;;;;;5042772;28;20319;-91
2022/08/13 00:56:37;;;;;;;6.22;2.35;;;18.50;80.60;;;;;;5045349;28;20228;-91
2022/08/13 00:59:10;;;;;;;5.65;2.20;;;18.40;80.40;;;;;;5043125;28;20230;-89
2022/08/13 01:01:40;;;;;;;4.25;2.40;;;18.40;80.70;;;;;;5046561;28;20230;-91
2022/08/13 01:04:08;;;;;;;4.75;2.30;;;18.40;81.20;;;;;;5042519;28;20760;-92
2022/08/13 01:06:35;;;;;;;4.63;2.15;;;18.30;81.00;;;;;;5046511;28;20601;-91
2022/08/13 01:09:02;;;;;;;3.90;2.28;;;18.40;81.10;;;;;;5047266;28;20221;-92
2022/08/13 01:11:32;;;;;;;2.38;2.17;;;18.30;81.30;;;;;;5035573;28;20216;-91
2022/08/13 01:14:02;;;;;;;2.92;2.30;;;18.30;81.50;;;;;;5044645;28;20223;-91
2022/08/13 01:16:36;;;;;;;4.22;2.28;;;18.30;81.70;;;;;;5045116;28;20224;-92
2022/08/13 01:19:06;;;;;;;6.88;2.40;;;18.20;82.40;;;;;;5062886;28;20807;-91
2022/08/13 01:21:39;;;;;;;2.55;2.30;;;18.20;82.20;;;;;;5045489;28;20661;-91
2022/08/13 01:24:09;;;;;;;4.43;2.25;;;18.20;82.40;;;;;;5043767;28;20307;-91
2022/08/13 01:26:37;;;;;;;3.08;2.17;;;18.10;82.20;;;;;;5047708;28;20700;-91
2022/08/13 01:29:05;;;;;;;4.32;2.30;;;18.20;82.40;;;;;;5040657;28;20770;-91
2022/08/13 01:31:34;;;;;;;4.65;2.60;;;18.10;82.50;;;;;;5043694;28;20231;-91
2022/08/13 01:34:03;;;;;;;3.78;2.30;;;18.00;83.00;;;;;;5045497;28;20285;-91
2022/08/13 01:36:31;;;;;;;3.75;2.15;;;18.00;83.10;;;;;;5045197;28;20603;-92
2022/08/13 01:39:01;;;;;;;4.20;2.30;;;18.00;83.30;;;;;;5063751;28;20232;-92
2022/08/13 01:41:28;;;;;;;4.75;1.98;;;18.00;83.60;;;;;;5043441;28;20220;-91
2022/08/13 01:44:00;;;;;;;3.15;2.17;;;17.90;83.50;;;;;;5047299;28;20315;-91
2022/08/13 01:50:28;;;;;;;3.72;2.38;;;17.90;83.80;;;;;;5046180;28;20227;-91
2022/08/13 01:51:59;;;;;;;4.20;2.08;;;17.90;83.80;;;;;;5062157;28;20220;-91
2022/08/13 01:54:28;;;;;;;2.63;2.20;;;17.80;83.90;;;;;;5047476;28;20299;-92
2022/08/13 01:56:59;;;;;;;5.55;2.40;;;17.90;84.30;;;;;;5045096;28;20224;-91
2022/08/13 01:59:26;;;;;;;6.85;2.33;;;17.80;85.20;;;;;;5041797;28;20227;-91
2022/08/13 02:01:54;;;;;;;4.07;2.28;;;17.80;84.60;;;;;;5049183;28;20807;-91
2022/08/13 02:04:21;;;;;;;4.18;2.33;;;17.70;85.00;;;;;;5046165;28;20718;-91
2022/08/13 02:06:48;;;;;;;5.32;2.70;;;17.70;85.10;;;;;;5046508;28;20227;-91
2022/08/13 02:09:15;;;;;;;2.50;2.30;;;17.60;85.10;;;;;;5047363;28;20354;-91
2022/08/13 02:11:43;;;;;;;4.95;2.30;;;17.60;85.40;;;;;;5048019;28;20690;-91
2022/08/13 02:14:11;;;;;;;5.68;2.45;;;17.60;85.90;;;;;;5046710;28;20242;-91
2022/08/13 02:16:38;;;;;;;3.83;2.50;;;17.60;86.10;;;;;;5045503;28;20224;-91
2022/08/13 02:19:07;;;;;;;3.40;2.30;;;17.50;86.50;;;;;;5046063;28;20334;-91
2022/08/13 02:21:34;;;;;;;4.82;2.20;;;17.50;86.60;;;;;;5043987;28;20353;-91
2022/08/13 02:24:03;;;;;;;5.68;2.40;;;17.40;86.90;;;;;;5047389;28;20676;-91
2022/08/13 02:26:37;;;;;;;2.97;2.50;;;17.50;86.90;;;;;;5045619;28;20232;-91
2022/08/13 02:29:07;;;;;;;3.53;2.20;;;17.40;87.80;;;;;;5063313;28;20231;-91
2022/08/13 02:31:34;;;;;;;4.13;2.30;;;17.30;87.30;;;;;;5042912;28;20236;-91
2022/08/13 02:34:01;;;;;;;5.28;2.53;;;17.30;87.20;;;;;;5049507;28;20290;-92
2022/08/13 02:36:29;;;;;;;3.88;2.40;;;17.20;87.60;;;;;;5046815;28;20224;-91
2022/08/13 02:38:57;;;;;;;3.70;2.25;;;17.30;88.10;;;;;;5047051;28;20236;-91
2022/08/13 02:41:40;;;;;;;3.70;2.42;;;17.20;88.10;;;;;;5062458;28;20575;-91
2022/08/13 02:44:11;;;;;;;3.97;2.33;;;17.20;88.20;;;;;;5043867;28;20299;-91
2022/08/13 02:46:38;;;;;;;6.38;2.65;;;17.10;89.30;;;;;;5049295;28;20674;-91
2022/08/13 02:49:05;;;;;;;4.65;2.65;;;17.10;89.40;;;;;;5042079;28;20224;-91
2022/08/13 02:51:32;;;;;;;4.60;2.30;;;17.10;89.00;;;;;;5046705;28;20683;-91
2022/08/13 02:54:00;;;;;;;4.75;2.70;;;17.00;89.40;;;;;;5035436;28;20230;-91
2022/08/13 02:56:27;;;;;;;3.95;2.50;;;17.00;90.10;;;;;;5046602;28;20224;-92
2022/08/13 02:58:55;;;;;;;4.18;2.90;;;16.90;90.30;;;;;;5048983;28;20346;-92
2022/08/13 03:01:25;;;;;;;3.67;2.90;;;17.00;90.40;;;;;;5047254;28;20220;-91
2022/08/13 03:03:51;;;;;;;4.68;2.63;;;17.00;90.70;;;;;;5048416;28;20220;-91
2022/08/13 03:06:19;;;;;;;3.78;2.60;;;16.90;90.70;;;;;;5044673;28;20228;-92
2022/08/13 03:08:48;;;;;;;3.60;2.58;;;16.90;90.90;;;;;;5045864;28;20649;-91
2022/08/13 03:11:15;;;;;;;4.25;2.63;;;16.80;91.10;;;;;;5045489;28;20706;-91
2022/08/13 03:13:45;;;;;;;4.80;2.33;;;16.80;91.30;;;;;;5046333;28;20224;-91
2022/08/13 03:16:16;;;;;;;7.15;2.80;;;16.70;91.60;;;;;;5044503;28;20556;-91
2022/08/13 03:18:45;;;;;;;4.93;2.63;;;16.70;91.80;;;;;;5045436;28;20247;-91
2022/08/13 03:21:17;;;;;;;4.13;2.70;;;16.70;91.40;;;;;;5045644;28;20968;-92
2022/08/13 03:23:43;;;;;;;4.35;2.80;;;16.60;91.90;;;;;;5045939;28;20216;-91
2022/08/13 03:26:11;;;;;;;6.50;2.57;;;16.60;92.00;;;;;;5046223;28;20406;-91
2022/08/13 03:28:38;;;;;;;4.85;2.55;;;16.60;92.40;;;;;;5046648;28;20791;-91
2022/08/13 03:31:06;;;;;;;5.00;2.70;;;16.50;92.70;;;;;;5044666;28;20282;-91
2022/08/13 03:33:33;;;;;;;2.75;2.22;;;16.40;92.90;;;;;;5045881;28;20614;-90
2022/08/13 03:36:01;;;;;;;4.10;2.50;;;16.40;93.20;;;;;;5044516;28;20216;-91
2022/08/13 03:38:28;;;;;;;5.25;2.88;;;16.40;93.60;;;;;;5051448;28;20248;-91
2022/08/13 03:41:11;;;;;;;3.83;3.05;;;16.40;93.80;;;;;;5047591;28;20212;-92
2022/08/13 03:43:42;;;;;;;4.07;2.80;;;16.30;93.90;;;;;;5054556;28;20220;-90
2022/08/13 03:46:12;;;;;;;3.30;2.67;;;16.30;94.20;;;;;;5047247;28;20242;-91
2022/08/13 03:48:40;;;;;;;4.93;2.50;;;16.30;94.10;;;;;;5047070;28;20220;-92
2022/08/13 03:51:08;;;;;;;4.97;2.97;;;16.30;93.80;;;;;;5043113;28;20220;-91
2022/08/13 03:53:38;;;;;;;3.33;2.90;;;16.20;94.10;;;;;;5045500;28;20224;-91
2022/08/13 03:56:06;;;;;;;8.13;3.00;;;16.10;94.30;;;;;;5047618;28;20240;-92
2022/08/13 03:58:33;;;;;;;4.82;2.90;;;16.10;94.50;;;;;;5046310;28;20667;-91
2022/08/13 04:01:01;;;;;;;4.93;3.00;;;16.10;94.70;;;;;;5046565;28;20236;-91
2022/08/13 04:03:32;;;;;;;5.03;3.10;;;16.00;94.90;;;;;;5040211;28;20251;-92
2022/08/13 04:06:04;;;;;;;3.53;2.60;;;16.00;95.20;;;;;;5049580;28;20216;-92
2022/08/13 04:08:34;;;;;;;5.10;2.90;;;16.00;95.40;;;;;;5049454;28;20854;-92
2022/08/13 04:11:02;;;;;;;6.10;2.60;;;15.90;95.10;;;;;;5050828;28;20220;-91
2022/08/13 04:13:33;;;;;;;6.50;3.20;;;16.00;95.00;;;;;;5049611;28;20227;-91
2022/08/13 04:16:00;;;;;;;4.53;2.95;;;15.90;95.30;;;;;;5049315;28;20220;-92
2022/08/13 04:18:27;;;;;;;5.30;2.83;;;15.90;95.60;;;;;;5041665;28;20224;-91
2022/08/13 04:20:55;;;;;;;5.40;2.93;;;15.80;95.70;;;;;;5067673;28;20232;-91
2022/08/13 04:23:22;;;;;;;6.65;2.67;;;15.90;95.80;;;;;;5048110;28;20685;-92
2022/08/13 04:25:50;;;;;;;4.20;3.05;;;15.80;96.20;;;;;;5050202;28;20300;-92
2022/08/13 04:28:20;;;;;;;2.97;2.72;;;15.80;96.40;;;;;;5062356;28;20224;-91
2022/08/13 04:30:48;;;;;;;3.97;2.58;;;15.80;96.50;;;;;;5049521;28;20220;-92
2022/08/13 04:33:16;;;;;;;2.88;2.47;;;15.80;96.60;;;;;;5062980;28;20223;-92
2022/08/13 04:35:44;;;;;;;4.63;3.15;;;15.80;96.80;;;;;;5047546;28;20243;-91
2022/08/13 04:38:12;;;;;;;3.70;2.97;;;15.80;96.80;;;;;;5048807;28;20926;-92
2022/08/13 04:40:40;;;;;;;3.47;3.10;;;15.80;96.70;;;;;;5045118;28;20220;-91
2022/08/13 04:43:10;;;;;;;4.57;3.05;;;15.80;96.80;;;;;;5060346;28;20332;-91
2022/08/13 04:45:38;;;;;;;4.55;2.85;;;15.80;97.10;;;;;;5056750;28;20311;-91
2022/08/13 04:48:07;;;;;;;6.10;3.50;;;15.90;97.20;;;;;;5046234;28;20258;-91
2022/08/13 04:50:35;;;;;;;4.70;2.80;;;15.80;97.20;;;;;;5058638;28;20225;-91
2022/08/13 04:53:04;;;;;;;6.63;2.97;;;15.90;97.40;;;;;;5047862;28;20224;-91
2022/08/13 04:55:31;;;;;;;4.67;2.70;;;15.90;97.40;;;;;;5045530;28;20228;-91
2022/08/13 04:57:58;;;;;;;4.30;3.28;;;16.00;97.40;;;;;;5061144;28;20220;-91
2022/08/13 05:00:29;;;;;;;4.63;3.00;;;16.00;97.30;;;;;;5045831;28;20232;-91
2022/08/13 05:02:55;;;;;;;6.22;2.85;;;16.00;97.50;;;;;;5041843;28;20228;-92
2022/08/13 05:05:24;;;;;;;4.60;2.90;;;16.00;97.40;;;;;;5047183;28;20228;-92
2022/08/13 05:07:52;;;;;;;3.72;3.00;;;16.10;97.50;;;;;;5049457;28;20228;-92
2022/08/13 05:10:20;;;;;;;6.70;3.05;;;16.10;97.70;;;;;;5056333;28;20231;-91
2022/08/13 05:12:47;;;;;;;4.53;2.90;;;16.20;97.80;;;;;;5043782;28;20224;-91
2022/08/13 05:15:14;;;;;;;5.60;2.90;;;16.20;97.70;;;;;;5062465;28;20219;-91
2022/08/13 05:17:42;;;;;;;4.13;2.55;;;16.30;97.70;;;;;;5029518;28;20311;-91
2022/08/13 05:20:15;;;;;;;3.85;2.70;;;16.30;97.80;;;;;;5051931;28;20557;-91
2022/08/13 05:22:42;;;;;;;3.72;2.90;;;16.40;97.70;;;;;;5051851;28;20220;-91
2022/08/13 05:25:09;;;;;;;3.85;3.10;;;16.40;97.70;;;;;;5053186;28;20227;-91
2022/08/13 05:27:44;;;;;;;4.22;2.60;;;16.50;97.80;;;;;;5047284;28;20299;-92
2022/08/13 05:30:12;;;;;;;6.82;2.67;;;16.60;97.80;;;;;;5050251;28;20226;-92
2022/08/13 05:32:39;;;;;;;4.57;2.80;;;16.60;97.80;;;;;;5046909;28;21256;-91
2022/08/13 05:35:11;;;;;;;3.65;2.40;;;16.70;97.80;;;;;;5053601;28;20319;-91
2022/08/13 05:37:38;;;;;;;3.47;2.70;;;16.80;97.80;;;;;;5051591;28;20655;-92
2022/08/13 05:40:06;;;;;;;5.63;2.88;;;16.80;97.70;;;;;;5050504;28;20346;-91
2022/08/13 05:42:39;;;;;;;4.20;2.70;;;16.90;98.20;;;;;;5053804;28;20312;-91
2022/08/13 05:45:07;;;;;;;4.63;2.60;;;17.10;98.00;;;;;;5063546;28;20634;-91
2022/08/13 05:47:35;;;;;;;3.83;2.53;;;17.10;97.80;;;;;;5048523;28;20328;-91
2022/08/13 05:50:02;;;;;;;4.57;2.42;;;17.20;97.70;;;;;;5053124;28;20228;-92
2022/08/13 05:52:32;;;;;;;7.90;2.92;;;17.30;97.60;;;;;;5050680;28;20226;-91
2022/08/13 05:54:58;;;;;;;5.07;3.15;;;17.40;97.60;;;;;;5052113;28;20216;-92
2022/08/13 05:57:25;;;;;;;5.00;2.60;;;17.40;97.40;;;;;;5056689;28;20306;-92
2022/08/13 06:05:23;;;;;;;5.82;2.33;;;17.70;97.20;;;;;;5048906;28;20212;-91
2022/08/13 06:07:52;;;;;;;4.05;2.60;;;17.90;97.30;;;;;;5050029;28;20244;-92
2022/08/13 06:10:20;;;;;;;4.18;2.35;;;17.90;97.30;;;;;;5049297;28;20215;-91
2022/08/13 06:12:48;;;;;;;3.65;2.60;;;18.00;97.20;;;;;;5051094;28;20234;-91
2022/08/13 06:15:14;;;;;;;4.50;2.72;;;18.10;97.10;;;;;;5050430;28;20882;-91
2022/08/13 06:17:42;;;;;;;7.22;2.65;;;18.20;97.10;;;;;;5050846;28;20262;-91
2022/08/13 06:20:11;;;;;;;3.25;2.60;;;18.30;96.90;;;;;;5049236;28;20220;-92
2022/08/13 06:22:40;;;;;;;10.10;2.70;;;18.40;96.90;;;;;;5059546;28;20714;-91
2022/08/13 06:25:08;;;;;;;3.45;2.38;;;18.40;96.80;;;;;;5051596;28;20224;-90
2022/08/13 06:27:35;;;;;;;4.55;2.75;;;18.50;96.70;;;;;;5040380;28;20244;-91
2022/08/13 06:30:02;;;;;;;5.45;2.60;;;18.60;96.80;;;;;;5065676;28;20230;-90
2022/08/13 06:32:31;;;;;;;4.25;2.60;;;18.70;96.70;;;;;;5046909;28;20234;-91
2022/08/13 06:34:59;;;;;;;4.65;2.40;;;18.80;96.60;;;;;;5047821;28;20216;-91
2022/08/13 06:37:26;;;;;;;4.80;2.72;;;19.00;96.60;;;;;;5047051;28;20232;-90
2022/08/13 06:39:55;;;;;;;4.43;2.30;;;19.00;96.40;;;;;;5048271;28;20228;-91
2022/08/13 06:42:24;;;;;;;4.40;2.67;;;19.10;96.40;;;;;;5045069;28;20224;-91
2022/08/13 06:44:53;;;;;;;4.75;2.53;;;19.30;96.40;;;;;;5044676;28;20228;-91
2022/08/13 06:47:21;;;;;;;3.47;2.45;;;19.40;96.30;;;;;;5041942;28;20247;-90
2022/08/13 06:49:48;;;;;;;6.88;2.38;;;19.50;96.10;;;;;;5060322;28;20270;-91
2022/08/13 06:52:14;;;;;;;4.15;2.25;;;19.60;95.90;;;;;;5042851;28;20645;-91
2022/08/13 06:54:42;;;;;;;6.45;2.50;;;19.70;95.60;;;;;;5025343;28;20230;-92
2022/08/13 06:57:11;;;;;;;6.88;2.30;;;19.80;95.50;;;;;;5050649;28;20251;-91
2022/08/13 06:59:39;;;;;;;4.45;2.10;;;20.00;95.40;;;;;;5045186;28;20483;-90
2022/08/13 07:02:08;;;;;;;4.97;2.13;;;20.10;95.30;;;;;;5043743;28;20574;-91
2022/08/13 07:04:35;;;;;;;3.28;2.42;;;20.10;95.00;;;;;;5047467;28;20228;-92
2022/08/13 07:07:03;;;;;;;5.22;2.05;;;20.20;94.80;;;;;;5044343;28;20228;-91
2022/08/13 07:09:33;;;;;;;3.40;1.85;;;20.40;94.70;;;;;;5023863;28;20221;-91
2022/08/13 07:12:00;;;;;;;5.57;2.33;;;20.40;94.60;;;;;;5048125;28;20228;-92
2022/08/13 07:14:27;;;;;;;4.32;2.20;;;20.60;94.50;;;;;;5043880;28;20212;-92
2022/08/13 07:16:56;;;;;;;3.38;1.98;;;20.70;94.60;;;;;;5041716;28;20339;-91
2022/08/13 07:19:23;;;;;;;3.83;2.00;;;20.80;94.70;;;;;;5036445;28;20223;-90
2022/08/13 07:21:49;;;;;;;3.97;2.10;;;21.00;94.60;;;;;;5054879;28;20223;-91
2022/08/13 07:24:16;;;;;;;3.60;1.95;;;21.40;94.50;;;;;;5047206;28;20238;-91
2022/08/13 07:26:45;;;;;;;2.45;2.17;;;22.00;94.30;;;;;;5046053;28;20247;-90
2022/08/13 07:29:12;;;;;;;6.03;2.42;;;22.60;93.40;;;;;;5047417;28;20248;-90
2022/08/13 07:31:40;;;;;;;5.63;2.13;;;23.40;93.00;;;;;;5041681;28;20656;-89
2022/08/13 07:34:09;;;;;;;3.05;2.05;;;24.30;92.40;;;;;;5043120;28;20224;-91
2022/08/13 07:36:38;;;;;;;4.95;1.92;;;25.30;90.70;;;;;;5042894;28;20228;-91
2022/08/13 07:39:09;;;;;;;2.85;1.90;;;26.20;88.30;;;;;;5045381;28;20242;-91
2022/08/13 07:41:40;;;;;;;2.80;1.90;;;27.20;84.70;;;;;;5045620;28;20338;-91
2022/08/13 07:44:09;;;;;;;4.70;2.13;;;28.10;81.80;;;;;;5041513;28;20224;-91
2022/08/13 07:46:42;;;;;;;3.25;2.25;;;28.90;79.00;;;;;;5045230;28;20220;-91
2022/08/13 07:49:12;;;;;;;4.10;1.90;;;29.60;76.80;;;;;;5048265;28;20236;-92
2022/08/13 07:51:39;;;;;;;5.40;2.00;;;30.40;73.60;;;;;;5046683;28;20220;-91
2022/08/13 07:54:07;;;;;;;3.00;2.10;;;31.00;72.30;;;;;;5041592;28;20247;-92
2022/08/13 07:56:34;;;;;;;7.10;1.80;;;31.70;69.90;;;;;;5047170;28;20302;-92
2022/08/13 07:59:04;;;;;;;1.60;1.50;;;32.40;67.90;;;;;;5042015;28;20370;-92
2022/08/13 08:01:34;;;;;;;2.60;1.77;;;32.90;64.50;;;;;;5043439;28;20545;-91
2022/08/13 08:04:04;;;;;;;4.55;2.22;;;33.40;63.50;;;;;;5042969;28;20243;-92
2022/08/13 08:06:33;;;;;;;3.97;1.85;;;33.90;60.40;;;;;;5048220;28;20242;-92
2022/08/13 08:09:00;;;;;;;3.97;1.80;;;34.30;59.00;;;;;;5046630;28;20227;-91
2022/08/13 08:14:12;;;;;;;3.05;1.80;;;35.00;56.10;;;;;;5044648;28;20238;-91
2022/08/13 08:16:44;;;;;;;2.80;2.38;;;35.30;55.10;;;;;;5040364;28;20220;-94
2022/08/13 08:19:14;;;;;;;3.53;2.00;;;35.50;53.70;;;;;;5047486;28;20266;-92
2022/08/13 08:21:42;;;;;;;3.55;1.80;;;35.50;53.00;;;;;;5047322;28;20308;-92
2022/08/13 08:24:11;;;;;;;1.83;1.67;;;35.50;52.30;;;;;;5047767;28;20598;-93
2022/08/13 08:26:38;;;;;;;3.97;1.77;;;35.50;52.50;;;;;;5048803;28;20319;-93
2022/08/13 08:29:08;;;;;;;3.80;1.80;;;35.60;51.90;;;;;;5049295;28;20212;-92
2022/08/13 08:31:39;;;;;;;3.65;1.80;;;35.60;51.10;;;;;;5058559;28;20220;-94
2022/08/13 08:34:07;;;;;;;2.53;1.52;;;35.60;49.20;;;;;;5054478;28;20224;-91
2022/08/13 08:36:38;;;;;;;2.25;1.63;;;35.90;49.40;;;;;;5053163;28;20220;-94
2022/08/13 08:44:39;;;;;;;3.60;1.70;;;36.40;47.60;;;;;;5047751;28;20216;-93
2022/08/13 08:47:07;;;;;;;3.42;1.70;;;36.60;47.70;;;;;;5053432;28;20761;-94
2022/08/13 08:49:34;;;;;;;3.33;1.90;;;36.90;47.30;;;;;;5049171;28;20816;-93
2022/08/13 08:52:03;;;;;;;1.70;1.52;;;37.20;45.70;;;;;;5048097;28;20226;-92
2022/08/13 08:54:34;;;;;;;3.17;1.77;;;37.40;45.30;;;;;;5049694;28;20236;-92
2022/08/13 08:57:03;;;;;;;3.33;1.55;;;37.60;44.70;;;;;;5050900;28;20226;-92
2022/08/13 08:59:35;;;;;;;5.32;1.63;;;37.70;44.40;;;;;;5043866;28;20228;-93
2022/08/13 09:02:16;;;;;;;2.83;1.50;;;37.70;43.70;;;;;;5046029;28;20220;-92
2022/08/13 09:04:44;;;;;;;3.58;1.40;;;37.70;44.10;;;;;;5047792;28;20261;-93
2022/08/13 09:07:12;;;;;;;1.90;1.70;;;37.80;43.60;;;;;;5044222;28;20213;-92
2022/08/13 09:09:40;;;;;;;2.30;1.75;;;37.90;43.50;;;;;;5046819;28;20228;-93
2022/08/13 09:12:12;;;;;;;2.72;1.65;;;38.10;43.40;;;;;;5048211;28;20236;-93
2022/08/13 09:14:39;;;;;;;5.25;1.67;;;38.20;43.50;;;;;;5041417;28;20225;-93
2022/08/13 09:17:07;;;;;;;2.13;1.75;;;38.40;43.30;;;;;;5042130;28;20293;-91
2022/08/13 09:19:34;;;;;;;3.47;1.98;;;38.70;42.20;;;;;;5047906;28;20227;-92
2022/08/13 09:22:01;;;;;;;2.90;1.73;;;38.90;41.80;;;;;;5048551;28;20243;-94
2022/08/13 09:24:28;;;;;;;3.13;1.63;;;39.10;41.50;;;;;;5045588;28;20245;-93
2022/08/13 09:26:56;;;;;;;3.53;1.73;;;39.20;41.10;;;;;;5048342;28;20219;-93
2022/08/13 09:29:24;;;;;;;3.95;1.75;;;39.30;40.60;;;;;;5044982;28;20231;-92
2022/08/13 09:31:58;;;;;;;1.83;1.58;;;39.50;41.20;;;;;;5045222;28;20259;-93
2022/08/13 09:34:25;;;;;;;3.45;1.80;;;39.60;40.30;;;;;;5040532;28;20232;-92
2022/08/13 09:36:57;;;;;;;2.75;1.30;;;39.80;40.50;;;;;;5045795;28;20311;-92
2022/08/13 09:39:32;;;;;;;3.80;1.45;;;40.00;39.30;;;;;;5048410;28;20229;-93
2022/08/13 09:42:05;;;;;;;2.30;1.73;;;40.10;38.40;;;;;;5057644;28;20251;-93
2022/08/13 09:44:41;;;;;;;3.42;1.70;;;40.00;38.80;;;;;;5050094;28;20265;-93
2022/08/13 09:47:10;;;;;;;3.60;1.77;;;40.00;39.20;;;;;;5043842;28;20279;-93
2022/08/13 09:49:37;;;;;;;4.80;1.80;;;40.00;38.80;;;;;;5051507;28;20246;-93
2022/08/13 09:52:04;;;;;;;2.58;2.22;;;40.10;38.70;;;;;;5051745;28;20228;-93
2022/08/13 09:54:32;;;;;;;5.00;2.00;;;40.10;38.40;;;;;;5052950;28;20204;-89
2022/08/13 09:57:00;;;;;;;4.20;1.88;;;40.20;38.10;;;;;;5061101;28;20209;-90
2022/08/13 09:59:28;;;;;;;3.15;1.58;;;40.40;38.10;;;;;;5058471;28;20292;-90
2022/08/13 10:01:56;;;;;;;2.83;2.10;;;40.60;38.00;;;;;;5065812;28;20223;-89
2022/08/13 10:04:22;;;;;;;2.67;1.77;;;40.60;37.30;;;;;;5062819;28;20224;-91
2022/08/13 10:06:49;;;;;;;2.85;1.70;;;40.80;36.40;;;;;;5067146;28;20231;-90
2022/08/13 10:09:16;;;;;;;4.00;1.92;;;40.90;36.10;;;;;;5061849;28;20209;-90
2022/08/13 10:11:43;;;;;;;3.42;1.95;;;40.80;36.60;;;;;;5064729;28;20227;-90
2022/08/13 10:14:11;;;;;;;3.80;2.30;;;40.80;36.70;;;;;;5063220;28;20470;-89
2022/08/13 10:16:38;;;;;;;2.20;2.00;;;40.80;36.60;;;;;;5061865;28;20255;-90
2022/08/13 10:19:06;;;;;;;3.67;1.83;;;41.00;36.40;;;;;;5063766;28;20275;-91
2022/08/13 10:21:33;;;;;;;3.65;1.98;;;41.00;36.20;;;;;;5062858;28;20224;-90
2022/08/13 10:24:00;;;;;;;2.42;1.88;;;41.10;36.00;;;;;;5061961;28;20221;-91
2022/08/13 10:26:26;;;;;;;3.05;2.10;;;41.20;35.40;;;;;;5066155;28;20204;-91
2022/08/13 10:28:53;;;;;;;4.65;2.22;;;41.30;35.70;;;;;;5063279;28;20235;-90
2022/08/13 10:31:27;;;;;;;2.58;1.90;;;41.40;35.60;;;;;;5061612;28;20284;-90
2022/08/13 10:33:54;;;;;;;4.85;1.90;;;41.50;35.70;;;;;;5077696;28;20314;-91
2022/08/13 10:36:22;;;;;;;1.88;1.70;;;41.50;35.20;;;;;;5061179;28;20252;-91
2022/08/13 10:38:49;;;;;;;2.30;1.88;;;41.60;34.70;;;;;;5063931;28;20226;-91
2022/08/13 10:41:16;;;;;;;4.90;2.10;;;41.50;34.50;;;;;;5062469;28;20314;-91
2022/08/13 10:43:43;;;;;;;3.75;2.60;;;41.50;34.80;;;;;;5057438;28;20216;-89
2022/08/13 10:46:16;;;;;;;3.70;2.70;;;41.50;34.40;;;;;;5061029;28;20219;-91
2022/08/13 10:48:44;;;;;;;2.88;2.50;;;41.50;34.40;;;;;;5062548;28;20293;-90
2022/08/13 10:51:11;;;;;;;3.78;2.10;;;41.40;34.50;;;;;;5061589;28;20239;-90
2022/08/13 10:53:58;;;;;;;3.45;1.90;;;41.40;34.70;;;;;;5061781;28;20307;-91
2022/08/13 10:56:27;;;;;;;3.30;2.10;;;41.50;34.70;;;;;;5062597;28;20227;-90
2022/08/13 10:58:55;;;;;;;4.90;2.28;;;41.50;34.20;;;;;;5060781;28;20239;-90
2022/08/13 11:01:24;;;;;;;4.88;2.20;;;41.40;34.20;;;;;;5077605;28;20734;-92
2022/08/13 11:03:53;;;;;;;2.47;2.28;;;41.20;33.80;;;;;;5057481;28;20282;-91
2022/08/13 11:06:20;;;;;;;3.15;2.20;;;40.90;34.40;;;;;;5059364;28;20287;-92
2022/08/13 11:08:47;;;;;;;3.33;2.50;;;40.70;35.00;;;;;;5065686;28;20216;-91
2022/08/13 11:11:14;;;;;;;3.97;2.50;;;40.40;35.00;;;;;;5061299;28;20224;-91
2022/08/13 11:13:42;;;;;;;2.58;2.33;;;40.30;34.80;;;;;;5063456;28;20220;-90
2022/08/13 11:16:56;;;;;;;3.15;2.40;;;40.10;35.00;;;;;;5046970;28;20380;-91
2022/08/13 11:19:00;;;;;;;4.93;2.80;;;40.00;35.10;;;;;;5061302;28;20209;-91
2022/08/13 11:21:28;;;;;;;3.97;2.55;;;39.80;34.80;;;;;;5080053;28;20228;-91
2022/08/13 11:23:54;;;;;;;4.18;2.50;;;39.60;34.90;;;;;;5062816;28;20208;-91
2022/08/13 11:26:21;;;;;;;5.03;2.88;;;39.40;35.20;;;;;;5061429;28;20220;-92
2022/08/13 11:28:48;;;;;;;4.57;2.90;;;39.20;35.40;;;;;;5056528;28;20230;-93
2022/08/13 11:31:15;;;;;;;5.00;3.13;;;39.00;35.90;;;;;;5060220;28;20219;-93
2022/08/13 11:33:42;;;;;;;4.28;3.13;;;38.80;35.90;;;;;;5060350;28;20224;-92
2022/08/13 11:36:11;;;;;;;4.10;2.97;;;38.80;35.90;;;;;;5075176;28;20263;-93
2022/08/13 11:38:38;;;;;;;3.85;3.47;;;38.60;36.50;;;;;;5059209;28;20224;-93
2022/08/13 11:41:05;;;;;;;5.82;4.30;;;38.60;36.40;;;;;;5059038;28;20281;-93
2022/08/13 11:43:32;;;;;;;5.05;4.38;;;38.50;36.60;;;;;;5072890;28;20216;-92
2022/08/13 11:45:59;;;;;;;4.28;3.88;;;38.40;36.20;;;;;;5056891;28;20242;-92
2022/08/13 11:48:26;;;;;;;5.72;4.18;;;38.20;36.90;;;;;;5056828;28;20248;-93
2022/08/13 11:50:55;;;;;;;6.75;4.30;;;38.20;36.90;;;;;;5058652;28;20228;-93
2022/08/13 11:53:24;;;;;;;5.70;4.13;;;38.20;37.00;;;;;;5057338;28;20225;-93
2022/08/13 11:55:51;;;;;;;3.95;3.65;;;38.40;37.10;;;;;;5059598;28;20231;-93
2022/08/13 11:58:18;;;;;;;4.60;3.80;;;38.50;36.60;;;;;;5077547;28;20316;-91
2022/08/13 12:00:45;;;;;;;4.30;3.90;;;38.50;36.90;;;;;;5058336;28;20227;-93
2022/08/13 12:03:12;;;;;;;3.80;3.50;;;38.60;37.00;;;;;;5061134;28;20224;-93
2022/08/13 12:05:39;;;;;;;4.07;3.70;;;38.50;36.90;;;;;;5060023;28;20266;-93
2022/08/13 12:08:14;;;;;;;4.13;3.80;;;38.40;37.10;;;;;;5061881;28;20232;-93
2022/08/13 12:10:43;;;;;;;4.15;3.75;;;38.30;37.30;;;;;;5056738;28;20230;-92
2022/08/13 12:13:10;;;;;;;5.32;3.60;;;38.30;37.20;;;;;;5059233;28;20239;-93
2022/08/13 12:15:37;;;;;;;5.90;3.90;;;38.20;37.10;;;;;;5062321;28;20556;-92
2022/08/13 12:18:04;;;;;;;5.15;3.70;;;38.10;37.20;;;;;;5059453;28;20291;-92
2022/08/13 12:20:31;;;;;;;4.22;3.58;;;38.00;37.30;;;;;;5060919;28;20208;-92
2022/08/13 12:23:03;;;;;;;4.35;3.58;;;37.80;37.40;;;;;;5062417;28;20251;-93
2022/08/13 12:25:31;;;;;;;4.25;3.63;;;37.60;38.00;;;;;;5060495;28;20236;-93
2022/08/13 12:28:11;;;;;;;4.72;4.07;;;37.30;37.60;;;;;;5061318;28;20395;-93
2022/08/13 12:30:38;;;;;;;7.25;3.47;;;37.00;38.20;;;;;;5060286;28;20243;-91
2022/08/13 12:33:05;;;;;;;3.75;3.45;;;36.60;38.20;;;;;;5060307;28;20227;-94
2022/08/13 12:35:32;;;;;;;6.13;3.90;;;36.30;38.60;;;;;;5053131;28;20223;-92
2022/08/13 12:37:59;;;;;;;7.00;4.10;;;36.00;39.10;;;;;;5054018;28;20303;-94
2022/08/13 12:40:26;;;;;;;5.72;3.67;;;35.70;39.70;;;;;;5041408;28;20220;-93
2022/08/13 12:42:53;;;;;;;5.80;3.58;;;35.60;40.00;;;;;;5047178;28;20232;-94
2022/08/13 12:45:21;;;;;;;5.15;3.45;;;35.50;40.30;;;;;;5054743;28;20904;-91
2022/08/13 12:48:07;;;;;;;5.15;3.30;;;35.30;40.30;;;;;;5060399;28;20232;-93
2022/08/13 12:50:35;;;;;;;4.38;3.97;;;35.20;40.50;;;;;;5063627;28;20285;-92
2022/08/13 12:53:02;;;;;;;7.57;3.53;;;35.20;40.60;;;;;;5052509;28;20269;-94
2022/08/13 12:55:30;;;;;;;7.15;3.67;;;35.00;41.10;;;;;;5044096;28;20539;-92
2022/08/13 12:57:58;;;;;;;4.32;3.50;;;35.10;41.10;;;;;;5046576;28;20668;-93
2022/08/13 13:00:28;;;;;;;4.00;3.70;;;35.00;41.00;;;;;;5039266;28;20228;-94
2022/08/13 13:02:55;;;;;;;5.50;3.78;;;34.90;41.30;;;;;;5057075;28;20228;-93
2022/08/13 13:05:22;;;;;;;7.75;4.05;;;34.80;41.30;;;;;;5041270;28;20220;-94
2022/08/13 13:07:52;;;;;;;5.88;3.63;;;34.80;41.50;;;;;;5043361;28;20321;-93
2022/08/13 13:10:19;;;;;;;6.32;4.00;;;34.70;41.70;;;;;;5044926;28;20228;-94
2022/08/13 13:12:46;;;;;;;6.53;3.83;;;34.60;41.90;;;;;;5041733;28;20223;-92
2022/08/13 13:15:16;;;;;;;3.90;3.45;;;34.70;42.20;;;;;;5039956;28;20224;-94